Time;durP1;ratioP1;P1;durP2;ratioP2;P2;SDS_P1;SDS_P2;PMS_P1;PMS_P2;Temp;Humidity;BMP_temperature;BMP_pressure;BME280_temperature;BME280_humidity;BME280_pressure;Samples;Min_cycle;Max_cycle;Signal;HPM_P1;HPM_P2
2022/03/18 00:00:00;;;;;;;41.08;21.80;;;6.80;99.90;;;;;;5066007;28;20040;-60
2022/03/18 00:03:26;;;;;;;34.20;17.52;;;6.80;99.90;;;;;;5057404;28;20041;-60
2022/03/18 00:06:51;;;;;;;25.88;15.07;;;6.70;99.90;;;;;;5041015;28;20040;-60
2022/03/18 00:10:17;;;;;;;29.20;16.02;;;6.70;99.90;;;;;;5052822;28;20210;-60
2022/03/18 00:13:42;;;;;;;27.67;16.10;;;6.70;99.90;;;;;;5047576;28;20087;-60
2022/03/18 00:17:08;;;;;;;25.95;14.18;;;6.70;99.90;;;;;;5063818;28;20492;-61
2022/03/18 00:20:32;;;;;;;21.73;12.15;;;6.70;99.90;;;;;;5054412;28;20048;-61
2022/03/18 00:23:58;;;;;;;26.15;12.77;;;6.60;99.90;;;;;;5067860;28;20078;-60
2022/03/18 00:27:25;;;;;;;21.35;10.60;;;6.50;99.90;;;;;;5067377;28;20036;-60
2022/03/18 00:30:49;;;;;;;18.08;10.77;;;6.50;99.90;;;;;;5049731;28;20033;-60
2022/03/18 00:34:14;;;;;;;19.20;10.95;;;6.40;99.90;;;;;;5058654;28;20032;-60
2022/03/18 00:37:40;;;;;;;21.48;10.73;;;6.30;99.90;;;;;;5069361;28;20117;-60
2022/03/18 00:41:05;;;;;;;17.95;9.20;;;6.30;99.90;;;;;;5054002;28;20476;-60
2022/03/18 00:44:30;;;;;;;17.85;9.63;;;6.30;99.90;;;;;;5066514;28;20124;-60
2022/03/18 00:54:44;;;;;;;11.40;6.72;;;6.40;99.90;;;;;;5030206;28;20102;-60
2022/03/18 00:58:09;;;;;;;14.75;8.63;;;6.40;99.90;;;;;;5058418;28;20029;-60
2022/03/18 01:01:34;;;;;;;17.05;8.95;;;6.40;99.90;;;;;;5042418;28;20463;-60
2022/03/18 01:04:59;;;;;;;22.00;8.73;;;6.50;99.90;;;;;;5056289;28;20033;-60
2022/03/18 01:08:25;;;;;;;16.33;7.72;;;6.50;99.90;;;;;;5054794;28;20680;-60
2022/03/18 01:11:50;;;;;;;17.80;7.55;;;6.40;99.90;;;;;;5060659;28;20025;-59
2022/03/18 01:15:16;;;;;;;12.20;7.28;;;6.40;99.90;;;;;;5063817;28;20043;-60
2022/03/18 01:18:41;;;;;;;10.40;5.78;;;6.40;99.90;;;;;;5029257;28;20080;-60
2022/03/18 01:22:09;;;;;;;19.65;8.38;;;6.40;99.90;;;;;;5064881;28;20028;-60
2022/03/18 01:25:32;;;;;;;13.65;7.57;;;6.50;99.90;;;;;;5062828;28;20534;-60
2022/03/18 01:28:58;;;;;;;11.73;6.53;;;6.50;99.90;;;;;;5029394;28;20038;-59
2022/03/18 01:32:22;;;;;;;12.32;6.20;;;6.50;99.90;;;;;;5064535;28;20036;-60
2022/03/18 01:35:48;;;;;;;12.85;5.82;;;6.60;99.90;;;;;;5050024;28;20132;-59
2022/03/18 01:39:13;;;;;;;11.38;6.57;;;6.60;99.90;;;;;;5058099;28;20093;-60
2022/03/18 01:42:39;;;;;;;11.32;5.35;;;6.60;99.90;;;;;;5063307;28;20380;-60
2022/03/18 01:46:05;;;;;;;12.77;6.47;;;6.70;99.90;;;;;;5053232;28;20033;-60
2022/03/18 01:49:29;;;;;;;13.35;6.43;;;6.70;99.90;;;;;;5048985;28;20044;-60
2022/03/18 01:52:55;;;;;;;18.35;6.65;;;6.70;99.90;;;;;;5044391;28;20039;-60
2022/03/18 01:56:20;;;;;;;18.23;6.53;;;6.80;99.90;;;;;;5057582;28;20032;-60
2022/03/18 01:59:45;;;;;;;13.55;6.00;;;6.80;99.90;;;;;;5064868;28;20443;-59
2022/03/18 02:03:11;;;;;;;13.38;6.03;;;6.80;99.90;;;;;;5049094;28;20087;-60
2022/03/18 02:06:36;;;;;;;12.07;5.72;;;6.90;99.90;;;;;;5055305;28;20413;-60
2022/03/18 02:10:01;;;;;;;12.05;5.43;;;6.90;99.90;;;;;;5057435;28;20086;-60
2022/03/18 02:13:27;;;;;;;12.15;6.53;;;6.90;99.90;;;;;;5059257;28;20653;-60
2022/03/18 02:16:52;;;;;;;11.65;5.95;;;6.90;99.90;;;;;;5061130;28;20025;-60
2022/03/18 02:20:18;;;;;;;14.40;6.43;;;6.90;99.90;;;;;;5028767;28;20049;-60
2022/03/18 02:23:43;;;;;;;8.80;4.85;;;6.90;99.90;;;;;;5063635;28;20488;-61
2022/03/18 02:27:08;;;;;;;16.02;6.60;;;6.90;99.90;;;;;;5060758;28;20037;-60
2022/03/18 02:30:34;;;;;;;10.85;5.32;;;6.90;99.90;;;;;;5028433;28;20039;-61
2022/03/18 02:33:59;;;;;;;10.30;6.10;;;7.00;99.90;;;;;;5062444;28;20029;-59
2022/03/18 02:37:24;;;;;;;11.98;5.90;;;6.90;99.90;;;;;;5041825;28;20033;-60
2022/03/18 02:40:50;;;;;;;11.95;5.38;;;7.00;99.90;;;;;;5028417;28;20111;-60
2022/03/18 02:44:15;;;;;;;15.20;7.03;;;7.00;99.90;;;;;;5056868;28;20028;-60
2022/03/18 02:47:42;;;;;;;11.30;5.93;;;7.00;99.90;;;;;;5049518;28;20483;-60
2022/03/18 02:51:07;;;;;;;14.23;6.60;;;7.00;99.90;;;;;;5060518;28;20046;-60
2022/03/18 02:54:33;;;;;;;9.98;5.45;;;7.00;99.90;;;;;;5068528;28;20036;-60
2022/03/18 02:57:57;;;;;;;12.65;6.20;;;7.00;99.90;;;;;;5053793;28;20044;-60
2022/03/18 03:01:22;;;;;;;16.33;6.43;;;6.90;99.90;;;;;;5068646;28;20044;-60
2022/03/18 03:08:19;;;;;;;12.18;6.40;;;7.00;99.90;;;;;;5000319;28;20037;-60
2022/03/18 03:11:44;;;;;;;14.05;6.43;;;7.00;99.90;;;;;;5066315;28;20058;-60
2022/03/18 03:15:10;;;;;;;15.52;7.32;;;7.00;99.90;;;;;;5053141;28;20126;-60
2022/03/18 03:18:35;;;;;;;13.02;6.85;;;7.00;99.90;;;;;;5064440;28;20059;-60
2022/03/18 03:22:00;;;;;;;12.38;6.18;;;7.00;99.90;;;;;;5058706;28;20516;-60
2022/03/18 03:25:26;;;;;;;10.98;6.07;;;7.00;99.90;;;;;;5049495;28;20150;-60
2022/03/18 03:28:51;;;;;;;13.55;5.40;;;6.90;99.90;;;;;;5063661;28;20047;-60
2022/03/18 03:32:17;;;;;;;15.80;5.82;;;7.00;99.90;;;;;;5061968;28;20032;-61
2022/03/18 03:35:42;;;;;;;8.63;4.88;;;6.90;99.90;;;;;;5031436;28;20120;-60
2022/03/18 03:39:07;;;;;;;13.90;5.72;;;6.90;99.90;;;;;;5031418;28;20140;-60
2022/03/18 03:42:33;;;;;;;14.20;5.43;;;6.90;99.90;;;;;;5046758;28;20403;-60
2022/03/18 03:45:58;;;;;;;11.45;4.82;;;6.90;99.90;;;;;;5060023;28;20037;-60
2022/03/18 03:49:23;;;;;;;15.60;5.65;;;6.90;99.90;;;;;;5065253;28;20557;-60
2022/03/18 03:52:49;;;;;;;14.93;5.15;;;7.00;99.90;;;;;;5047136;28;20075;-60
2022/03/18 03:56:14;;;;;;;16.58;5.13;;;7.00;99.90;;;;;;5059872;28;20037;-60
2022/03/18 03:59:40;;;;;;;11.95;5.00;;;7.00;99.90;;;;;;5031083;28;20068;-60
2022/03/18 04:03:05;;;;;;;16.73;5.03;;;6.90;99.90;;;;;;5055236;28;20047;-60
2022/03/18 04:06:30;;;;;;;12.85;4.82;;;6.90;99.90;;;;;;5050789;28;20419;-59
2022/03/18 04:09:56;;;;;;;22.50;4.95;;;6.90;99.90;;;;;;5056294;28;20029;-60
2022/03/18 04:13:21;;;;;;;11.98;4.35;;;7.00;99.90;;;;;;5050100;28;20052;-60
2022/03/18 04:16:46;;;;;;;12.45;4.22;;;6.90;99.90;;;;;;5063132;28;20068;-61
2022/03/18 04:20:12;;;;;;;11.98;4.45;;;6.90;99.90;;;;;;5051945;28;20048;-60
2022/03/18 04:23:37;;;;;;;12.27;4.28;;;6.90;99.90;;;;;;5063640;28;20675;-60
2022/03/18 04:27:02;;;;;;;5.60;3.17;;;6.90;99.90;;;;;;5064536;28;20044;-60
2022/03/18 04:30:28;;;;;;;10.52;3.85;;;6.90;99.90;;;;;;5030366;28;20040;-60
2022/03/18 04:33:53;;;;;;;15.30;3.95;;;6.80;99.90;;;;;;5062414;28;20045;-61
2022/03/18 04:37:18;;;;;;;20.60;4.40;;;6.90;99.90;;;;;;5050422;28;20571;-60
2022/03/18 04:40:44;;;;;;;8.38;2.75;;;6.90;99.90;;;;;;5058874;28;20115;-60
2022/03/18 04:44:09;;;;;;;12.68;3.25;;;6.90;99.90;;;;;;5030286;28;20037;-60
2022/03/18 04:47:35;;;;;;;15.50;4.75;;;6.90;99.90;;;;;;5057197;28;20125;-60
2022/03/18 04:51:00;;;;;;;10.52;3.60;;;6.90;99.90;;;;;;5058976;28;20405;-60
2022/03/18 04:54:25;;;;;;;7.88;2.45;;;6.90;99.90;;;;;;5059048;28;20127;-60
2022/03/18 04:57:51;;;;;;;15.30;3.83;;;6.80;99.90;;;;;;5050256;28;20048;-59
2022/03/18 05:01:16;;;;;;;16.58;2.97;;;6.80;99.90;;;;;;5058503;28;20036;-60
2022/03/18 05:04:41;;;;;;;11.05;3.03;;;6.80;99.90;;;;;;5040907;28;20040;-61
2022/03/18 05:08:08;;;;;;;12.80;2.47;;;6.70;99.90;;;;;;5056332;28;20066;-60
2022/03/18 05:11:32;;;;;;;7.80;2.42;;;6.70;99.90;;;;;;5052996;28;20078;-60
2022/03/18 05:14:58;;;;;;;20.40;3.88;;;6.70;99.90;;;;;;5059644;28;20056;-60
2022/03/18 05:18:23;;;;;;;10.30;2.30;;;6.70;99.90;;;;;;5045434;28;20044;-60
2022/03/18 05:21:48;;;;;;;11.80;3.13;;;6.70;99.90;;;;;;5064839;28;20040;-60
2022/03/18 05:25:14;;;;;;;12.20;3.50;;;6.70;99.90;;;;;;5057346;28;20047;-61
2022/03/18 05:28:39;;;;;;;9.18;2.50;;;6.70;99.90;;;;;;5043090;28;20040;-60
2022/03/18 05:32:04;;;;;;;12.13;3.80;;;6.60;99.90;;;;;;5057243;28;20025;-59
2022/03/18 05:35:30;;;;;;;8.60;2.90;;;6.70;99.90;;;;;;5053485;28;20094;-56
2022/03/18 05:38:55;;;;;;;12.45;2.92;;;6.70;99.90;;;;;;5045817;28;20465;-56
2022/03/18 05:42:20;;;;;;;11.82;3.25;;;6.70;99.90;;;;;;5063573;28;20028;-60
2022/03/18 05:45:46;;;;;;;13.45;2.85;;;6.70;99.90;;;;;;5050561;28;20039;-60
2022/03/18 05:48:31;;;;;;;8.95;2.90;;;6.70;99.90;;;;;;5057202;28;20025;-50
2022/03/18 05:50:57;;;;;;;10.38;2.78;;;6.70;99.90;;;;;;5069193;28;20038;-47
2022/03/18 05:53:22;;;;;;;11.20;3.38;;;6.80;99.90;;;;;;5066891;28;20047;-53
2022/03/18 05:58:32;;;;;;;11.02;3.17;;;6.80;99.90;;;;;;5042006;28;20047;-46
2022/03/18 06:00:57;;;;;;;9.77;2.92;;;6.80;99.90;;;;;;5069155;28;20021;-47
2022/03/18 06:04:03;;;;;;;14.43;3.45;;;6.80;99.90;;;;;;5053452;28;20034;-50
2022/03/18 06:07:28;;;;;;;8.80;2.33;;;6.90;99.90;;;;;;5042485;28;20048;-49
2022/03/18 06:14:18;;;;;;;13.93;3.58;;;7.00;99.90;;;;;;5042444;28;20160;-48
2022/03/18 06:17:43;;;;;;;8.68;2.50;;;7.10;99.90;;;;;;5056810;28;20044;-46
2022/03/18 06:21:11;;;;;;;7.40;2.60;;;7.10;99.90;;;;;;5068714;28;20093;-47
2022/03/18 06:24:36;;;;;;;14.90;3.00;;;7.20;99.90;;;;;;5050573;28;20037;-47
2022/03/18 06:28:02;;;;;;;13.43;2.75;;;7.30;99.90;;;;;;5053842;28;20062;-49
2022/03/18 06:31:27;;;;;;;11.43;2.40;;;7.30;99.90;;;;;;5060946;28;20039;-52
2022/03/18 06:34:53;;;;;;;8.23;2.88;;;7.40;99.90;;;;;;5046125;28;20497;-48
2022/03/18 06:38:18;;;;;;;13.15;2.63;;;7.50;99.90;;;;;;5058807;28;20036;-49
2022/03/18 06:41:43;;;;;;;8.65;2.15;;;7.60;99.90;;;;;;5054625;28;20037;-48
2022/03/18 06:45:09;;;;;;;14.82;3.65;;;7.60;99.90;;;;;;5060451;28;20082;-48
2022/03/18 06:48:34;;;;;;;11.32;3.10;;;7.70;99.90;;;;;;5058529;28;20188;-47
2022/03/18 06:52:00;;;;;;;10.10;3.08;;;7.70;99.90;;;;;;5051619;28;20467;-51
2022/03/18 06:55:25;;;;;;;7.45;2.05;;;7.80;99.90;;;;;;5064692;28;20033;-49
2022/03/18 06:58:50;;;;;;;12.05;2.50;;;7.90;99.90;;;;;;5058981;28;20036;-49
2022/03/18 07:02:15;;;;;;;11.60;2.88;;;8.00;99.90;;;;;;5031515;28;20504;-52
2022/03/18 07:05:41;;;;;;;12.70;4.10;;;8.20;99.90;;;;;;5064089;28;20105;-48
2022/03/18 07:09:06;;;;;;;14.27;3.53;;;8.40;99.90;;;;;;5063832;28;20029;-50
2022/03/18 07:12:32;;;;;;;11.38;3.10;;;8.40;99.00;;;;;;5060524;28;20040;-50
2022/03/18 07:17:54;;;;;;;10.38;2.75;;;8.50;98.20;;;;;;5065797;28;20044;-51
2022/03/18 07:19:22;;;;;;;16.08;3.00;;;8.80;96.20;;;;;;5047304;28;20484;-50
2022/03/18 07:22:48;;;;;;;11.45;2.78;;;9.20;92.00;;;;;;5031676;28;20037;-46
2022/03/18 07:26:13;;;;;;;14.38;3.55;;;9.70;90.40;;;;;;5067594;28;20146;-46
2022/03/18 07:29:41;;;;;;;23.00;3.33;;;10.40;80.00;;;;;;5051541;28;20040;-48
2022/03/18 07:33:04;;;;;;;13.68;3.10;;;10.20;76.20;;;;;;5031042;28;20092;-49
2022/03/18 07:36:29;;;;;;;9.25;2.20;;;10.00;76.20;;;;;;5059671;28;20029;-52
2022/03/18 07:39:54;;;;;;;12.40;2.70;;;10.00;78.90;;;;;;5044621;28;20521;-53
2022/03/18 07:43:23;;;;;;;15.32;3.40;;;10.50;73.60;;;;;;5057749;28;20138;-51
2022/03/18 07:46:28;;;;;;;;;;;10.90;70.70;;;;;;5056693;28;20041;-46
2022/03/18 07:49:54;;;;;;;11.30;2.40;;;11.20;62.90;;;;;;5055457;28;19916;-53
2022/03/18 07:53:19;;;;;;;8.25;2.63;;;11.50;64.40;;;;;;5057748;28;20400;-52
2022/03/18 07:56:44;;;;;;;13.13;2.42;;;11.70;60.80;;;;;;5053468;28;20041;-48
2022/03/18 08:00:10;;;;;;;9.02;2.35;;;12.10;51.80;;;;;;5059556;28;20496;-52
2022/03/18 08:03:35;;;;;;;39.05;16.83;;;12.80;53.60;;;;;;5057349;28;20032;-51
2022/03/18 08:07:02;;;;;;;19.40;6.32;;;12.80;51.20;;;;;;5054999;28;20066;-52
2022/03/18 08:10:26;;;;;;;32.92;13.23;;;13.40;45.40;;;;;;5063537;28;20040;-48
2022/03/18 08:13:52;;;;;;;34.88;14.98;;;13.30;46.30;;;;;;5059412;28;20495;-51
2022/03/18 08:17:16;;;;;;;21.80;8.95;;;13.00;43.00;;;;;;5030185;28;20100;-51
2022/03/18 08:20:42;;;;;;;17.83;6.50;;;12.90;44.90;;;;;;5062604;28;20511;-51
2022/03/18 08:24:08;;;;;;;15.88;5.22;;;13.00;44.60;;;;;;5062312;28;20501;-51
2022/03/18 08:27:33;;;;;;;10.75;3.17;;;13.10;50.00;;;;;;5058385;28;20044;-52
2022/03/18 08:30:58;;;;;;;12.68;3.65;;;14.80;43.90;;;;;;5058521;28;20028;-52
2022/03/18 08:34:23;;;;;;;9.48;2.78;;;16.20;33.90;;;;;;5047947;28;20039;-51
2022/03/18 08:37:58;;;;;;;8.02;3.30;;;17.50;27.50;;;;;;5059142;28;20037;-49
2022/03/18 08:41:23;;;;;;;7.25;2.42;;;18.50;23.50;;;;;;5067829;28;20094;-51
2022/03/18 08:44:48;;;;;;;9.55;3.00;;;18.70;25.60;;;;;;5044230;28;20033;-51
2022/03/18 08:48:14;;;;;;;11.80;4.00;;;18.10;25.20;;;;;;5058235;28;20036;-52
2022/03/18 08:51:39;;;;;;;10.55;3.30;;;17.40;26.10;;;;;;5051394;28;20040;-50
2022/03/18 08:55:04;;;;;;;10.48;3.20;;;19.10;21.70;;;;;;5057203;28;20090;-54
2022/03/18 08:58:30;;;;;;;14.93;4.70;;;19.30;23.30;;;;;;5056591;28;20123;-53
2022/03/18 09:01:55;;;;;;;12.35;4.45;;;18.90;17.30;;;;;;5051054;28;20503;-52
2022/03/18 09:05:21;;;;;;;11.27;4.13;;;19.00;20.90;;;;;;5047250;28;20152;-52
2022/03/18 09:08:46;;;;;;;12.50;4.75;;;18.70;20.10;;;;;;5061517;28;20028;-49
2022/03/18 09:12:11;;;;;;;11.75;4.35;;;18.30;21.60;;;;;;5029244;28;20111;-48
2022/03/18 09:15:37;;;;;;;18.25;5.97;;;18.30;23.60;;;;;;5065435;28;20039;-47
2022/03/18 09:19:02;;;;;;;12.90;4.50;;;19.30;17.60;;;;;;5055785;28;20185;-51
2022/03/18 09:22:27;;;;;;;14.40;5.68;;;19.30;19.90;;;;;;5049055;28;20039;-49
2022/03/18 09:25:53;;;;;;;16.00;7.32;;;19.00;18.40;;;;;;5065104;28;20071;-50
2022/03/18 09:29:19;;;;;;;15.68;6.30;;;19.80;17.20;;;;;;5063077;28;20123;-49
2022/03/18 09:32:44;;;;;;;18.50;8.00;;;18.70;17.40;;;;;;5057605;28;20036;-51
2022/03/18 09:36:24;;;;;;;13.75;6.13;;;18.20;20.40;;;;;;5067312;28;20083;-46
2022/03/18 09:39:49;;;;;;;16.95;6.45;;;18.00;18.50;;;;;;5050779;28;20044;-46
2022/03/18 09:43:18;;;;;;;18.80;7.40;;;17.60;19.70;;;;;;5065215;28;20037;-49
2022/03/18 09:46:43;;;;;;;17.95;7.38;;;17.30;21.30;;;;;;5049254;28;20123;-49
2022/03/18 09:50:08;;;;;;;20.90;7.72;;;17.20;21.30;;;;;;5057347;28;20036;-49
2022/03/18 09:53:34;;;;;;;17.10;8.18;;;17.60;20.50;;;;;;5055236;28;20033;-47
2022/03/18 09:56:59;;;;;;;13.85;6.63;;;19.10;18.20;;;;;;5048843;28;20162;-51
2022/03/18 10:00:25;;;;;;;11.55;6.47;;;20.30;14.30;;;;;;5045249;28;20126;-50
2022/03/18 10:03:59;;;;;;;14.48;6.65;;;21.10;14.10;;;;;;5062145;28;20032;-46
2022/03/18 10:07:30;;;;;;;15.98;7.57;;;21.50;12.50;;;;;;5050307;28;20492;-46
2022/03/18 10:10:56;;;;;;;14.52;6.00;;;22.10;12.70;;;;;;5062799;28;20033;-50
2022/03/18 10:14:33;;;;;;;17.08;8.02;;;22.20;12.10;;;;;;5050061;28;20040;-46
2022/03/18 10:17:59;;;;;;;14.50;6.82;;;21.90;10.90;;;;;;5064435;28;20332;-47
2022/03/18 10:21:24;;;;;;;18.55;8.00;;;21.80;11.00;;;;;;5056933;28;20436;-47
2022/03/18 10:24:52;;;;;;;16.50;8.35;;;21.00;12.40;;;;;;5044077;28;20052;-46
2022/03/18 10:27:57;;;;;;;;;;;20.10;13.60;;;;;;5047387;28;20041;-45
2022/03/18 10:31:28;;;;;;;13.98;7.22;;;18.70;15.70;;;;;;5053630;28;19908;-46
2022/03/18 10:38:21;;;;;;;16.58;7.45;;;15.90;22.00;;;;;;5026643;28;20041;-46
2022/03/18 10:41:26;;;;;;;;;;;15.30;23.80;;;;;;5049932;28;20044;-47
2022/03/18 10:45:10;;;;;;;16.55;7.55;;;14.60;24.70;;;;;;5052202;28;19912;-46
2022/03/18 10:48:36;;;;;;;14.77;7.78;;;14.10;26.80;;;;;;5062598;28;20484;-46
2022/03/18 10:52:01;;;;;;;16.13;8.02;;;13.90;27.70;;;;;;5049352;28;20037;-49
2022/03/18 10:55:36;;;;;;;17.27;8.75;;;13.70;28.50;;;;;;5044728;28;20505;-46
2022/03/18 10:59:01;;;;;;;19.33;7.57;;;13.50;29.30;;;;;;5064021;28;20048;-47
2022/03/18 11:02:26;;;;;;;18.02;8.07;;;13.30;29.80;;;;;;5047538;28;20044;-46
2022/03/18 11:05:52;;;;;;;12.93;6.70;;;13.10;30.40;;;;;;5052313;28;20040;-46
2022/03/18 11:11:06;;;;;;;27.45;10.30;;;12.90;31.30;;;;;;5067656;28;20071;-46
2022/03/18 11:12:51;;;;;;;18.40;7.68;;;12.80;31.70;;;;;;5047753;28;20036;-49
2022/03/18 11:16:17;;;;;;;20.65;9.00;;;12.60;32.80;;;;;;5060179;28;20143;-47
2022/03/18 11:19:44;;;;;;;19.02;8.27;;;12.80;32.60;;;;;;5052259;28;20049;-46
2022/03/18 11:23:07;;;;;;;20.55;10.07;;;12.60;34.10;;;;;;5067203;28;20037;-46
2022/03/18 11:26:34;;;;;;;14.70;6.97;;;12.60;33.10;;;;;;5059598;28;20068;-46
2022/03/18 11:29:58;;;;;;;13.63;6.75;;;12.70;32.90;;;;;;5043679;28;20378;-45
2022/03/18 11:33:09;;;;;;;15.48;7.20;;;12.70;33.20;;;;;;5057798;28;20036;-46
2022/03/18 11:35:55;;;;;;;14.55;7.10;;;12.60;32.20;;;;;;5056614;28;20036;-49
2022/03/18 11:39:26;;;;;;;14.07;6.85;;;12.50;31.80;;;;;;5046355;28;20135;-46
2022/03/18 11:42:52;;;;;;;17.00;7.18;;;12.40;32.70;;;;;;5067556;28;20037;-46
2022/03/18 11:46:12;;;;;;;21.58;8.63;;;12.40;33.00;;;;;;5068152;28;20036;-47
2022/03/18 11:49:06;;;;;;;12.80;7.07;;;12.30;32.40;;;;;;5054506;28;20504;-43
2022/03/18 11:51:44;;;;;;;20.92;7.25;;;12.20;32.60;;;;;;5070419;28;20055;-55
2022/03/18 11:54:18;;;;;;;12.05;6.22;;;12.20;33.00;;;;;;5054438;28;20028;-55
2022/03/18 11:56:47;;;;;;;16.13;7.00;;;12.20;33.00;;;;;;5030793;28;20247;-57
2022/03/18 11:59:27;;;;;;;14.10;6.18;;;12.30;33.60;;;;;;5054708;28;20120;-55
2022/03/18 12:01:57;;;;;;;16.45;6.63;;;12.30;32.70;;;;;;5070237;28;20130;-54
2022/03/18 12:04:39;;;;;;;12.23;5.78;;;12.30;32.60;;;;;;5048646;28;20226;-55
2022/03/18 12:07:08;;;;;;;16.25;6.38;;;12.40;32.10;;;;;;5063513;28;20064;-52
2022/03/18 12:09:56;;;;;;;13.43;6.70;;;12.30;31.80;;;;;;5049215;28;20104;-57
2022/03/18 12:12:27;;;;;;;12.32;6.18;;;12.30;31.00;;;;;;5030477;28;20071;-57
2022/03/18 12:14:54;;;;;;;15.10;6.25;;;12.10;32.60;;;;;;5047082;28;20029;-51
2022/03/18 12:17:24;;;;;;;14.73;6.88;;;12.20;33.00;;;;;;5068657;28;20466;-53
2022/03/18 12:19:52;;;;;;;16.35;6.75;;;12.20;33.50;;;;;;5048622;28;20106;-55
2022/03/18 12:22:19;;;;;;;13.10;5.60;;;12.20;33.60;;;;;;5069740;28;20417;-56
2022/03/18 12:24:48;;;;;;;10.70;5.38;;;12.20;33.30;;;;;;5057018;28;20067;-53
2022/03/18 12:27:16;;;;;;;15.02;6.78;;;12.20;31.50;;;;;;5050275;28;20408;-55
2022/03/18 12:29:42;;;;;;;13.32;6.22;;;12.10;32.10;;;;;;5050756;28;20033;-56
2022/03/18 12:32:09;;;;;;;24.38;7.22;;;12.20;31.00;;;;;;5069138;28;20082;-57
2022/03/18 12:34:47;;;;;;;14.30;7.00;;;12.10;31.40;;;;;;5048455;28;20112;-57
2022/03/18 12:37:17;;;;;;;14.05;6.32;;;12.10;31.10;;;;;;5028823;28;20436;-52
2022/03/18 12:39:43;;;;;;;10.70;5.15;;;12.10;31.60;;;;;;5045643;28;20063;-51
2022/03/18 12:42:12;;;;;;;13.57;6.43;;;12.10;31.50;;;;;;5069114;28;20025;-55
2022/03/18 12:44:43;;;;;;;13.05;5.72;;;12.10;29.70;;;;;;5047999;28;20033;-54
2022/03/18 12:47:09;;;;;;;10.93;5.00;;;12.20;30.70;;;;;;5030173;28;20083;-55
2022/03/18 12:49:37;;;;;;;11.35;5.10;;;12.30;30.50;;;;;;5050559;28;20456;-50
2022/03/18 12:52:11;;;;;;;16.67;6.28;;;12.40;30.00;;;;;;5069180;28;20032;-56
2022/03/18 12:54:38;;;;;;;21.42;7.38;;;12.50;30.00;;;;;;5047793;28;20116;-55
2022/03/18 12:57:07;;;;;;;11.45;5.30;;;12.50;29.50;;;;;;5069005;28;20040;-55
2022/03/18 12:59:33;;;;;;;9.35;3.92;;;12.50;29.10;;;;;;5047777;28;20044;-57
2022/03/18 13:01:59;;;;;;;12.98;5.18;;;12.50;29.20;;;;;;5068790;28;20024;-54
2022/03/18 13:04:25;;;;;;;11.10;5.90;;;12.60;29.30;;;;;;5048206;28;20222;-57
2022/03/18 13:06:57;;;;;;;11.60;5.30;;;12.60;29.20;;;;;;5064869;28;20032;-57
2022/03/18 13:09:23;;;;;;;12.38;6.10;;;12.60;28.40;;;;;;5048112;28;20029;-57
2022/03/18 13:11:49;;;;;;;12.80;5.35;;;12.60;28.60;;;;;;5068527;28;20406;-56
2022/03/18 13:14:34;;;;;;;13.23;5.30;;;12.50;28.40;;;;;;5046168;28;20084;-54
2022/03/18 13:17:01;;;;;;;12.70;5.43;;;12.60;28.90;;;;;;5069377;28;20056;-53
2022/03/18 13:20:19;;;;;;;17.05;5.88;;;12.60;28.40;;;;;;5049365;28;20242;-56
2022/03/18 13:23:45;;;;;;;9.85;4.90;;;12.70;27.40;;;;;;5057104;28;20118;-55
2022/03/18 13:27:10;;;;;;;14.13;5.15;;;12.70;27.80;;;;;;5055840;28;20051;-54
2022/03/18 13:34:22;;;;;;;11.95;4.50;;;12.50;26.70;;;;;;5045812;28;20033;-55
2022/03/18 13:37:50;;;;;;;10.20;3.60;;;12.50;27.90;;;;;;5039112;28;20175;-56
2022/03/18 13:41:15;;;;;;;9.75;3.95;;;12.50;27.90;;;;;;5057824;28;20048;-57
2022/03/18 13:44:41;;;;;;;10.30;3.97;;;12.60;28.10;;;;;;5061184;28;20081;-58
2022/03/18 13:48:06;;;;;;;11.35;4.85;;;12.60;27.90;;;;;;5048316;28;20734;-53
2022/03/18 13:51:31;;;;;;;8.43;3.90;;;12.80;27.50;;;;;;5056622;28;20044;-53
2022/03/18 13:55:02;;;;;;;14.73;3.95;;;12.80;27.70;;;;;;5042098;28;20045;-55
2022/03/18 13:58:28;;;;;;;7.97;3.03;;;12.70;27.60;;;;;;5064010;28;20381;-56
2022/03/18 14:01:53;;;;;;;13.55;4.38;;;12.70;26.50;;;;;;5027660;28;20049;-55
2022/03/18 14:05:22;;;;;;;9.77;3.72;;;12.70;27.40;;;;;;5045688;28;20500;-53
2022/03/18 14:08:27;;;;;;;;;;;12.60;27.30;;;;;;5061634;28;20040;-55
2022/03/18 14:12:10;;;;;;;11.70;4.53;;;12.50;28.00;;;;;;5053819;28;20009;-54
2022/03/18 14:15:47;;;;;;;11.15;4.57;;;12.50;28.50;;;;;;5064692;28;20440;-57
2022/03/18 14:19:20;;;;;;;13.95;5.00;;;12.40;27.90;;;;;;5059564;28;20036;-55
2022/03/18 14:22:46;;;;;;;18.45;5.30;;;12.30;27.70;;;;;;5062966;28;20040;-53
2022/03/18 14:26:11;;;;;;;16.42;4.90;;;12.20;26.80;;;;;;5058441;28;20496;-54
2022/03/18 14:29:38;;;;;;;12.57;4.43;;;12.20;26.40;;;;;;5044615;28;20039;-53
2022/03/18 14:33:01;;;;;;;10.20;4.45;;;12.20;27.50;;;;;;5056823;28;20056;-56
2022/03/18 14:36:27;;;;;;;12.68;4.10;;;12.20;27.00;;;;;;5064967;28;20391;-54
2022/03/18 14:39:52;;;;;;;8.65;3.70;;;12.20;27.20;;;;;;5042726;28;20140;-53
2022/03/18 14:43:21;;;;;;;7.35;3.45;;;12.20;27.20;;;;;;5061379;28;20029;-51
2022/03/18 14:46:26;;;;;;;;;;;12.10;27.10;;;;;;5058165;28;20045;-54
2022/03/18 14:49:51;;;;;;;11.05;3.60;;;12.10;27.00;;;;;;5046375;28;19944;-52
2022/03/18 14:53:17;;;;;;;13.02;3.67;;;12.10;26.60;;;;;;5068725;28;20094;-51
2022/03/18 14:56:42;;;;;;;12.10;4.57;;;12.00;26.90;;;;;;5053719;28;20033;-51
2022/03/18 15:00:07;;;;;;;13.20;3.88;;;11.90;27.40;;;;;;5060151;28;20098;-54
2022/03/18 15:03:32;;;;;;;13.35;4.03;;;11.90;27.40;;;;;;5058965;28;20028;-54
2022/03/18 15:06:58;;;;;;;13.52;4.47;;;11.80;27.60;;;;;;5055423;28;20040;-55
2022/03/18 15:10:23;;;;;;;12.55;4.75;;;11.80;27.10;;;;;;5049276;28;20040;-53
2022/03/18 15:13:49;;;;;;;5.10;2.45;;;11.70;25.50;;;;;;5058894;28;20602;-56
2022/03/18 15:17:14;;;;;;;4.10;2.67;;;11.70;24.30;;;;;;5051747;28;20041;-56
2022/03/18 15:20:39;;;;;;;10.40;2.78;;;11.60;24.90;;;;;;5067658;28;20044;-56
2022/03/18 15:24:05;;;;;;;4.65;2.00;;;11.60;24.60;;;;;;5065990;28;20041;-53
2022/03/18 15:27:31;;;;;;;8.00;2.65;;;11.50;25.00;;;;;;5031747;28;20039;-51
2022/03/18 15:30:56;;;;;;;7.72;2.30;;;11.40;24.20;;;;;;5067869;28;20385;-56
2022/03/18 15:34:21;;;;;;;7.72;2.33;;;11.30;23.20;;;;;;5063662;28;20033;-53
2022/03/18 15:37:46;;;;;;;10.43;3.03;;;11.30;22.80;;;;;;5060310;28;20048;-56
2022/03/18 15:41:12;;;;;;;7.75;2.67;;;11.20;22.50;;;;;;5036483;28;20114;-56
2022/03/18 15:44:37;;;;;;;8.30;2.47;;;11.20;22.90;;;;;;5031387;28;20033;-55
2022/03/18 15:48:02;;;;;;;5.78;2.15;;;11.10;21.70;;;;;;5031435;28;20053;-56
2022/03/18 15:51:28;;;;;;;6.13;1.83;;;11.00;22.70;;;;;;5048004;28;20099;-54
2022/03/18 15:54:53;;;;;;;7.05;1.92;;;10.90;23.10;;;;;;5059827;28;20642;-56
2022/03/18 15:58:18;;;;;;;11.15;2.38;;;10.80;23.20;;;;;;5059882;28;20040;-54
2022/03/18 16:01:44;;;;;;;6.63;1.58;;;10.80;21.50;;;;;;5053247;28;20114;-56
2022/03/18 16:05:11;;;;;;;5.10;1.40;;;10.80;20.90;;;;;;5069580;28;20047;-54
2022/03/18 16:08:34;;;;;;;6.10;1.80;;;10.70;21.40;;;;;;5056158;28;20040;-55
2022/03/18 16:12:00;;;;;;;5.70;1.60;;;10.60;21.00;;;;;;5050898;28;20553;-53
2022/03/18 16:15:27;;;;;;;9.82;1.33;;;10.70;18.60;;;;;;5057456;28;20036;-56
2022/03/18 16:18:52;;;;;;;6.85;1.50;;;10.60;18.00;;;;;;5055816;28;20052;-51
2022/03/18 16:22:33;;;;;;;5.53;1.50;;;10.40;18.80;;;;;;5062655;28;20029;-52
2022/03/18 16:25:56;;;;;;;2.45;1.20;;;10.30;20.10;;;;;;5051227;28;20142;-55
2022/03/18 16:29:22;;;;;;;8.40;1.77;;;10.10;20.00;;;;;;5059141;28;20484;-51
2022/03/18 16:32:47;;;;;;;4.85;1.52;;;10.10;19.30;;;;;;5059615;28;20123;-54
2022/03/18 16:36:12;;;;;;;7.10;2.30;;;10.10;19.70;;;;;;5049674;28;20483;-49
2022/03/18 16:39:38;;;;;;;8.05;2.38;;;10.00;19.10;;;;;;5058934;28;20135;-50
2022/03/18 16:43:03;;;;;;;3.95;1.92;;;9.90;19.70;;;;;;5058813;28;20047;-51
2022/03/18 16:49:53;;;;;;;7.15;2.35;;;9.60;21.50;;;;;;5030357;28;20132;-53
2022/03/18 16:53:18;;;;;;;5.18;2.30;;;9.50;21.90;;;;;;5066292;28;20032;-52
2022/03/18 16:56:43;;;;;;;7.55;3.42;;;9.50;22.30;;;;;;5052368;28;20036;-50
2022/03/18 17:00:10;;;;;;;9.48;3.45;;;9.30;22.90;;;;;;5056997;28;20133;-55
2022/03/18 17:03:36;;;;;;;5.80;2.45;;;9.00;24.00;;;;;;5051443;28;20036;-56
2022/03/18 17:06:59;;;;;;;8.88;2.88;;;8.90;24.60;;;;;;5044095;28;20116;-51
2022/03/18 17:10:25;;;;;;;8.32;3.03;;;8.80;25.30;;;;;;5056410;28;20507;-50
2022/03/18 17:13:50;;;;;;;9.85;4.05;;;8.70;26.10;;;;;;5053517;28;20048;-56
2022/03/18 17:17:15;;;;;;;9.32;3.83;;;8.60;26.70;;;;;;5061223;28;20119;-54
2022/03/18 17:20:41;;;;;;;10.57;4.25;;;8.50;26.90;;;;;;5056448;28;20078;-54
2022/03/18 17:24:08;;;;;;;10.23;3.83;;;8.30;27.70;;;;;;5029445;28;20043;-54
2022/03/18 17:27:32;;;;;;;11.27;3.55;;;8.10;28.40;;;;;;5065252;28;20045;-55
2022/03/18 17:30:57;;;;;;;9.77;3.45;;;8.00;29.00;;;;;;5055956;28;20036;-50
2022/03/18 17:34:22;;;;;;;9.15;3.28;;;7.70;29.80;;;;;;5049131;28;20052;-49